Time;durP1;ratioP1;P1;durP2;ratioP2;P2;SDS_P1;SDS_P2;PMS_P1;PMS_P2;Temp;Humidity;BMP_temperature;BMP_pressure;BME280_temperature;BME280_humidity;BME280_pressure;Samples;Min_cycle;Max_cycle;Signal;HPM_P1;HPM_P2
2022/03/16 00:02:07;;;;;;;57.80;26.03;;;0.70;99.90;;;;;;5013100;28;20188;-71
2022/03/16 00:04:33;;;;;;;51.20;24.07;;;0.60;99.90;;;;;;4995762;28;20187;-71
2022/03/16 00:06:59;;;;;;;54.67;25.63;;;0.50;99.90;;;;;;5014223;28;20194;-71
2022/03/16 00:09:24;;;;;;;48.70;24.37;;;0.40;99.90;;;;;;5014098;28;20535;-66
2022/03/16 00:11:50;;;;;;;51.77;23.30;;;0.40;99.90;;;;;;5014241;28;20234;-71
2022/03/16 00:14:16;;;;;;;46.93;24.00;;;0.50;99.90;;;;;;5012815;28;20559;-72
2022/03/16 00:16:42;;;;;;;50.07;22.47;;;0.50;99.90;;;;;;4995950;28;20211;-70
2022/03/16 00:19:08;;;;;;;49.47;23.70;;;0.50;99.90;;;;;;5014331;28;20287;-71
2022/03/16 00:21:34;;;;;;;42.63;21.90;;;0.60;99.90;;;;;;5013459;28;20739;-71
2022/03/16 00:24:01;;;;;;;50.97;22.67;;;0.60;99.90;;;;;;5013831;28;20225;-72
2022/03/16 00:26:27;;;;;;;46.53;21.37;;;0.70;99.90;;;;;;5013757;28;20186;-71
2022/03/16 00:28:53;;;;;;;46.33;23.13;;;0.70;99.90;;;;;;5013738;28;20183;-71
2022/03/16 00:31:19;;;;;;;52.33;23.43;;;0.70;99.90;;;;;;5012578;28;20249;-72
2022/03/16 00:33:45;;;;;;;43.33;21.47;;;0.60;99.90;;;;;;5013514;28;20263;-72
2022/03/16 00:36:10;;;;;;;50.37;23.00;;;0.60;99.90;;;;;;5021465;28;20179;-72
2022/03/16 00:38:36;;;;;;;46.93;22.20;;;0.60;99.90;;;;;;5032048;28;20509;-72
2022/03/16 00:41:03;;;;;;;48.03;23.17;;;0.60;99.90;;;;;;5015683;28;20213;-71
2022/03/16 00:43:28;;;;;;;46.97;22.00;;;0.70;99.90;;;;;;5033232;28;20650;-71
2022/03/16 00:45:54;;;;;;;56.70;24.30;;;0.80;99.90;;;;;;5032796;28;20179;-71
2022/03/16 00:48:20;;;;;;;54.67;25.23;;;0.80;99.90;;;;;;5033281;28;20178;-71
2022/03/16 00:50:46;;;;;;;54.93;23.93;;;0.90;99.90;;;;;;5032759;28;20183;-71
2022/03/16 00:53:11;;;;;;;48.60;24.13;;;0.90;99.90;;;;;;5033242;28;20211;-71
2022/03/16 00:55:37;;;;;;;49.33;23.93;;;0.90;99.90;;;;;;5031403;28;20202;-71
2022/03/16 00:58:03;;;;;;;58.67;26.73;;;0.90;99.90;;;;;;5033134;28;20454;-71
2022/03/16 01:00:44;;;;;;;53.57;24.87;;;0.90;99.90;;;;;;5032546;28;20264;-70
2022/03/16 01:03:10;;;;;;;60.60;28.43;;;0.80;99.90;;;;;;5031725;28;20179;-70
2022/03/16 01:05:35;;;;;;;54.03;25.43;;;0.70;99.90;;;;;;5031721;28;20630;-71
2022/03/16 01:11:23;;;;;;;51.53;25.00;;;0.70;99.90;;;;;;5032641;28;20325;-70
2022/03/16 01:13:49;;;;;;;52.47;25.50;;;0.70;99.90;;;;;;5014554;28;21030;-72
2022/03/16 01:16:14;;;;;;;51.93;24.67;;;0.70;99.90;;;;;;5033088;28;20195;-69
2022/03/16 01:18:40;;;;;;;66.13;26.90;;;0.80;99.90;;;;;;5030922;28;20189;-70
2022/03/16 01:21:07;;;;;;;47.10;21.50;;;0.80;99.90;;;;;;5032507;28;20212;-71
2022/03/16 01:23:35;;;;;;;45.37;21.90;;;0.80;99.90;;;;;;5014517;28;20630;-71
2022/03/16 01:26:01;;;;;;;47.63;21.33;;;0.80;99.90;;;;;;5032419;28;20195;-71
2022/03/16 01:28:27;;;;;;;47.20;23.80;;;0.80;99.90;;;;;;5032327;28;20180;-71
2022/03/16 01:30:52;;;;;;;52.80;23.60;;;0.80;99.90;;;;;;5032340;28;20190;-71
2022/03/16 01:33:18;;;;;;;46.23;23.07;;;0.80;99.90;;;;;;5032244;28;20217;-71
2022/03/16 01:35:44;;;;;;;41.93;20.37;;;0.80;99.90;;;;;;5026799;28;20192;-71
2022/03/16 01:38:10;;;;;;;40.27;20.50;;;0.90;99.90;;;;;;5020575;28;20639;-70
2022/03/16 01:40:35;;;;;;;45.80;20.53;;;0.90;99.90;;;;;;5030329;28;20734;-70
2022/03/16 01:43:01;;;;;;;43.40;22.40;;;0.90;99.90;;;;;;5030581;28;20274;-70
2022/03/16 01:45:27;;;;;;;52.90;23.77;;;0.80;99.90;;;;;;5031450;28;20692;-71
2022/03/16 01:47:53;;;;;;;46.77;23.13;;;0.80;99.90;;;;;;5032792;28;20241;-71
2022/03/16 01:50:18;;;;;;;54.40;24.57;;;0.80;99.90;;;;;;5015068;28;20222;-71
2022/03/16 01:52:44;;;;;;;53.20;24.33;;;0.80;99.90;;;;;;5032761;28;20179;-71
2022/03/16 01:55:10;;;;;;;49.13;23.40;;;0.70;99.90;;;;;;5032422;28;20231;-71
2022/03/16 01:57:39;;;;;;;55.53;24.57;;;0.70;99.90;;;;;;5014151;28;20215;-71
2022/03/16 02:00:06;;;;;;;51.47;22.63;;;0.60;99.90;;;;;;5031809;28;20212;-71
2022/03/16 02:02:33;;;;;;;42.13;20.90;;;0.60;99.90;;;;;;5031440;28;20174;-71
2022/03/16 02:04:59;;;;;;;38.83;19.80;;;0.60;99.90;;;;;;5032124;28;20244;-71
2022/03/16 02:07:24;;;;;;;42.60;19.23;;;0.60;99.90;;;;;;5031991;28;20183;-66
2022/03/16 02:09:52;;;;;;;45.23;21.00;;;0.60;99.90;;;;;;5032006;28;20568;-71
2022/03/16 02:12:18;;;;;;;42.87;20.90;;;0.60;99.90;;;;;;5032131;28;20535;-71
2022/03/16 02:14:43;;;;;;;39.90;21.00;;;0.60;99.90;;;;;;5031567;28;20183;-71
2022/03/16 02:17:09;;;;;;;49.97;20.30;;;0.60;99.90;;;;;;5032035;28;20186;-70
2022/03/16 02:19:35;;;;;;;35.53;19.23;;;0.60;99.90;;;;;;5031352;28;20195;-71
2022/03/16 02:22:03;;;;;;;41.20;20.67;;;0.60;99.90;;;;;;5031937;28;20180;-71
2022/03/16 02:24:29;;;;;;;47.93;20.20;;;0.60;99.90;;;;;;5014058;28;20336;-71
2022/03/16 02:26:56;;;;;;;41.23;19.53;;;0.60;99.90;;;;;;5016256;28;20708;-71
2022/03/16 02:29:22;;;;;;;50.43;21.90;;;0.60;99.90;;;;;;5035820;28;20188;-71
2022/03/16 02:31:48;;;;;;;43.87;20.83;;;0.60;99.90;;;;;;5017886;28;20202;-71
2022/03/16 02:34:14;;;;;;;38.17;19.40;;;0.60;99.90;;;;;;5035665;28;20256;-70
2022/03/16 02:36:39;;;;;;;45.97;18.10;;;0.60;99.90;;;;;;5004727;28;20266;-70
2022/03/16 02:39:05;;;;;;;40.60;20.53;;;0.60;99.90;;;;;;5016000;28;20279;-71
2022/03/16 02:41:31;;;;;;;41.77;20.27;;;0.60;99.90;;;;;;4997900;28;20207;-70
2022/03/16 02:43:57;;;;;;;48.50;20.20;;;0.60;99.90;;;;;;5015899;28;20208;-70
2022/03/16 02:46:23;;;;;;;46.03;20.20;;;0.60;99.90;;;;;;5015814;28;20771;-70
2022/03/16 02:48:49;;;;;;;53.70;22.70;;;0.60;99.90;;;;;;4981374;28;20587;-69
2022/03/16 02:51:15;;;;;;;47.37;20.07;;;0.60;99.90;;;;;;5015744;28;20690;-69
2022/03/16 02:53:41;;;;;;;47.90;21.80;;;0.50;99.90;;;;;;5015284;28;20184;-72
2022/03/16 02:56:07;;;;;;;57.73;23.37;;;0.50;99.90;;;;;;5015660;28;20172;-71
2022/03/16 02:58:33;;;;;;;47.23;22.60;;;0.50;99.90;;;;;;5015466;28;20275;-69
2022/03/16 03:00:59;;;;;;;43.40;21.43;;;0.50;99.90;;;;;;5015302;28;20220;-70
2022/03/16 03:03:25;;;;;;;54.10;22.43;;;0.60;99.90;;;;;;5015181;28;20246;-69
2022/03/16 03:05:54;;;;;;;47.87;20.93;;;0.60;99.90;;;;;;5015275;28;20187;-70
2022/03/16 03:08:20;;;;;;;49.63;21.40;;;0.60;99.90;;;;;;5015386;28;20187;-70
2022/03/16 03:10:46;;;;;;;46.97;21.70;;;0.60;99.90;;;;;;5014965;28;20544;-70
2022/03/16 03:13:14;;;;;;;47.33;22.70;;;0.60;99.90;;;;;;4997805;28;20181;-70
2022/03/16 03:15:41;;;;;;;46.10;21.17;;;0.60;99.90;;;;;;5014764;28;20184;-70
2022/03/16 03:18:07;;;;;;;45.03;21.67;;;0.60;99.90;;;;;;5015177;28;20204;-70
2022/03/16 03:20:33;;;;;;;59.10;22.57;;;0.60;99.90;;;;;;4996816;28;20591;-71
2022/03/16 03:22:59;;;;;;;61.30;22.23;;;0.60;99.90;;;;;;5015469;28;20187;-71
2022/03/16 03:25:24;;;;;;;57.23;22.17;;;0.60;99.90;;;;;;5014808;28;20192;-66
2022/03/16 03:27:50;;;;;;;49.43;20.80;;;0.60;99.90;;;;;;5015721;28;20326;-70
2022/03/16 03:30:16;;;;;;;59.27;20.67;;;0.50;99.90;;;;;;5014983;28;20184;-70
2022/03/16 03:32:41;;;;;;;53.77;20.93;;;0.50;99.90;;;;;;4997151;28;20671;-71
2022/03/16 03:35:08;;;;;;;77.97;24.73;;;0.50;99.90;;;;;;5015105;28;20187;-70
2022/03/16 03:37:36;;;;;;;64.37;21.83;;;0.50;99.90;;;;;;5034275;28;20632;-70
2022/03/16 03:40:02;;;;;;;45.83;18.83;;;0.60;99.90;;;;;;5034296;28;20246;-70
2022/03/16 03:42:28;;;;;;;47.60;19.53;;;0.60;99.90;;;;;;5034231;28;20218;-71
2022/03/16 03:44:54;;;;;;;35.53;18.57;;;0.70;99.90;;;;;;5034127;28;20215;-70
2022/03/16 03:47:19;;;;;;;41.90;18.43;;;0.70;99.90;;;;;;5034356;28;20235;-71
2022/03/16 03:49:45;;;;;;;46.23;18.93;;;0.70;99.90;;;;;;5033980;28;20195;-69
2022/03/16 03:52:11;;;;;;;67.03;20.57;;;0.70;99.90;;;;;;5034267;28;20624;-70
2022/03/16 03:54:37;;;;;;;53.00;20.17;;;0.70;99.90;;;;;;5033993;28;20616;-70
2022/03/16 03:57:03;;;;;;;63.60;21.10;;;0.60;99.90;;;;;;5016476;28;20180;-71
2022/03/16 03:59:29;;;;;;;54.53;21.00;;;0.60;99.90;;;;;;5033971;28;20504;-71
2022/03/16 04:01:55;;;;;;;54.10;24.33;;;0.60;99.90;;;;;;5034001;28;20225;-70
2022/03/16 04:04:21;;;;;;;54.73;23.53;;;0.50;99.90;;;;;;5034144;28;20263;-70
2022/03/16 04:06:46;;;;;;;74.20;25.13;;;0.40;99.90;;;;;;5015783;28;20183;-71
2022/03/16 04:09:12;;;;;;;48.70;22.43;;;0.30;99.90;;;;;;5016126;28;20183;-72
2022/03/16 04:11:38;;;;;;;45.33;19.73;;;0.20;99.90;;;;;;5033473;28;20590;-71
2022/03/16 04:14:04;;;;;;;51.53;19.83;;;0.10;99.90;;;;;;5033591;28;20328;-71
2022/03/16 04:16:30;;;;;;;60.20;21.53;;;0.10;99.90;;;;;;5033119;28;20187;-70
2022/03/16 04:18:56;;;;;;;66.83;21.53;;;0.10;99.90;;;;;;5033841;28;20183;-71
2022/03/16 04:21:22;;;;;;;85.60;25.63;;;0.10;99.90;;;;;;5033324;28;20210;-69
2022/03/16 04:23:49;;;;;;;64.87;21.33;;;0.10;99.90;;;;;;5033282;28;20605;-70
2022/03/16 04:26:15;;;;;;;64.50;22.93;;;0.10;99.90;;;;;;5033426;28;20209;-71
2022/03/16 04:28:41;;;;;;;67.37;24.03;;;0.10;99.90;;;;;;5033172;28;20194;-70
2022/03/16 04:31:07;;;;;;;43.13;19.17;;;0.20;99.90;;;;;;5032761;28;20579;-70
2022/03/16 04:33:33;;;;;;;38.23;19.60;;;0.30;99.90;;;;;;5032600;28;20183;-71
2022/03/16 04:35:59;;;;;;;56.70;20.10;;;0.30;99.90;;;;;;5025604;28;20195;-71
2022/03/16 04:38:24;;;;;;;93.23;23.10;;;0.30;99.90;;;;;;5013288;28;20641;-68
2022/03/16 04:40:50;;;;;;;55.73;21.30;;;0.40;99.90;;;;;;5012876;28;20310;-70
2022/03/16 04:43:16;;;;;;;87.07;24.73;;;0.40;99.90;;;;;;4995923;28;20184;-72
2022/03/16 04:45:43;;;;;;;67.60;22.67;;;0.50;99.90;;;;;;5012745;28;20265;-71
2022/03/16 04:48:11;;;;;;;57.10;20.33;;;0.50;99.90;;;;;;4995112;28;20235;-71
2022/03/16 04:50:40;;;;;;;58.93;21.57;;;0.50;99.90;;;;;;5012063;28;20279;-72
2022/03/16 04:53:06;;;;;;;69.37;20.83;;;0.70;99.90;;;;;;5012480;28;20552;-71
2022/03/16 04:55:35;;;;;;;74.63;22.57;;;0.70;99.90;;;;;;5012481;28;20186;-72
2022/03/16 04:58:02;;;;;;;57.13;20.97;;;0.80;99.90;;;;;;5012718;28;20179;-72
2022/03/16 05:00:28;;;;;;;52.37;19.40;;;0.80;99.90;;;;;;5012038;28;20676;-70
2022/03/16 05:02:54;;;;;;;64.53;21.70;;;0.90;99.90;;;;;;5012782;28;20188;-72
2022/03/16 05:05:19;;;;;;;88.83;23.73;;;1.00;99.90;;;;;;4995126;28;20193;-71
2022/03/16 05:07:45;;;;;;;91.70;22.60;;;1.00;99.90;;;;;;5012638;28;20189;-71
2022/03/16 05:10:11;;;;;;;55.93;19.80;;;1.10;99.90;;;;;;5012525;28;20595;-73
2022/03/16 05:12:41;;;;;;;64.13;20.37;;;1.10;99.90;;;;;;5015624;28;20278;-60
2022/03/16 05:15:10;;;;;;;54.90;19.63;;;1.20;99.90;;;;;;5005064;28;20278;-67
2022/03/16 05:17:37;;;;;;;38.37;18.00;;;1.30;99.90;;;;;;5023445;28;20255;-74
2022/03/16 05:20:04;;;;;;;61.47;22.10;;;1.40;99.90;;;;;;5022397;28;20224;-67
2022/03/16 05:22:29;;;;;;;54.03;19.37;;;1.50;99.90;;;;;;5020258;28;20179;-66
2022/03/16 05:24:55;;;;;;;55.73;18.97;;;1.50;99.90;;;;;;5020998;28;20197;-66
2022/03/16 05:27:21;;;;;;;38.10;18.40;;;1.60;99.90;;;;;;5019185;28;20564;-66
2022/03/16 05:29:47;;;;;;;46.83;18.33;;;1.50;99.90;;;;;;5003432;28;20229;-67
2022/03/16 05:32:14;;;;;;;51.00;19.10;;;1.40;99.90;;;;;;5020181;28;20196;-66
2022/03/16 05:34:40;;;;;;;69.50;19.10;;;1.40;99.90;;;;;;5020048;28;20288;-67
2022/03/16 05:37:06;;;;;;;50.07;18.60;;;1.30;99.90;;;;;;5018747;28;20358;-66
2022/03/16 05:39:32;;;;;;;46.47;18.60;;;1.20;99.90;;;;;;5017471;28;20194;-69
2022/03/16 05:42:00;;;;;;;59.27;19.33;;;1.30;99.90;;;;;;5017203;28;20283;-70
2022/03/16 05:44:26;;;;;;;46.80;18.57;;;1.30;99.90;;;;;;4985668;28;20193;-67
2022/03/16 05:46:53;;;;;;;49.97;21.30;;;1.30;99.90;;;;;;5017197;28;20236;-67
2022/03/16 05:49:19;;;;;;;59.90;19.17;;;1.30;99.90;;;;;;5001477;28;20189;-68
2022/03/16 05:51:44;;;;;;;39.83;18.07;;;1.30;99.90;;;;;;5003285;28;20272;-68
2022/03/16 05:54:10;;;;;;;37.47;16.70;;;1.30;99.90;;;;;;4999803;28;20631;-67
2022/03/16 05:56:36;;;;;;;50.73;19.77;;;1.30;99.90;;;;;;5017420;28;20660;-66
2022/03/16 05:59:02;;;;;;;78.37;20.67;;;1.40;99.90;;;;;;5001013;28;20666;-68
2022/03/16 06:01:28;;;;;;;55.07;21.40;;;1.50;99.90;;;;;;5000122;28;20212;-69
2022/03/16 06:03:54;;;;;;;88.97;23.90;;;1.50;99.90;;;;;;5019847;28;20660;-68
2022/03/16 06:06:20;;;;;;;62.23;24.37;;;1.60;99.90;;;;;;5019617;28;20188;-68
2022/03/16 06:08:46;;;;;;;61.30;22.67;;;1.50;99.90;;;;;;5018356;28;20184;-68
2022/03/16 06:11:11;;;;;;;57.77;20.93;;;1.60;99.90;;;;;;5001805;28;20284;-67
2022/03/16 06:13:37;;;;;;;61.93;21.00;;;1.60;99.90;;;;;;5019221;28;20197;-68
2022/03/16 06:16:04;;;;;;;65.33;22.53;;;1.70;99.90;;;;;;5009271;28;20202;-65
2022/03/16 06:18:30;;;;;;;65.63;22.33;;;1.70;99.90;;;;;;5019758;28;20174;-67
2022/03/16 06:20:55;;;;;;;67.27;24.60;;;1.70;99.90;;;;;;5022026;28;20619;-67
2022/03/16 06:23:21;;;;;;;49.43;22.87;;;1.80;99.90;;;;;;5012481;28;20193;-67
2022/03/16 06:25:47;;;;;;;95.40;22.37;;;1.80;99.90;;;;;;5030579;28;20199;-67
2022/03/16 06:28:13;;;;;;;60.40;22.17;;;1.90;99.90;;;;;;5030815;28;20527;-68
2022/03/16 06:30:38;;;;;;;109.87;25.37;;;1.90;99.90;;;;;;5012241;28;20205;-68
2022/03/16 06:33:04;;;;;;;98.50;25.10;;;1.90;99.90;;;;;;5030419;28;20657;-67
2022/03/16 06:35:30;;;;;;;88.20;24.00;;;2.10;99.90;;;;;;5018965;28;20215;-67
2022/03/16 06:37:56;;;;;;;70.17;25.23;;;2.20;99.90;;;;;;5030415;28;20220;-67
2022/03/16 06:40:22;;;;;;;87.00;26.87;;;2.30;99.90;;;;;;5030272;28;20206;-68
2022/03/16 06:42:50;;;;;;;56.87;24.40;;;2.40;99.90;;;;;;5029444;28;20615;-69
2022/03/16 06:45:16;;;;;;;69.60;26.63;;;2.40;99.90;;;;;;5030677;28;20288;-68
2022/03/16 06:47:42;;;;;;;84.47;25.97;;;2.40;99.90;;;;;;5029653;28;20280;-69
2022/03/16 06:50:09;;;;;;;74.00;24.93;;;2.50;99.90;;;;;;5030667;28;20274;-68
2022/03/16 06:52:34;;;;;;;72.27;25.87;;;2.60;99.90;;;;;;5012359;28;20181;-69
2022/03/16 06:55:00;;;;;;;63.70;23.30;;;2.70;99.90;;;;;;5012967;28;20188;-68
2022/03/16 06:57:26;;;;;;;58.53;20.53;;;2.80;99.90;;;;;;5030472;28;20186;-67
2022/03/16 06:59:52;;;;;;;85.73;21.50;;;2.80;99.90;;;;;;5010918;28;20186;-68
2022/03/16 07:02:17;;;;;;;64.17;21.73;;;2.80;99.90;;;;;;5020198;28;20517;-68
2022/03/16 07:04:43;;;;;;;71.53;22.83;;;3.00;99.90;;;;;;5018160;28;20490;-67
2022/03/16 07:07:09;;;;;;;86.23;24.77;;;3.10;99.90;;;;;;5017461;28;20219;-67
2022/03/16 07:09:34;;;;;;;67.43;22.17;;;3.30;99.90;;;;;;5018206;28;20183;-69
2022/03/16 07:12:01;;;;;;;58.57;24.40;;;3.40;99.90;;;;;;5013702;28;20549;-68
2022/03/16 07:14:32;;;;;;;64.23;23.83;;;3.40;99.90;;;;;;5029357;28;20283;-68
2022/03/16 07:16:59;;;;;;;75.60;26.10;;;3.50;99.90;;;;;;5034506;28;20191;-68
2022/03/16 07:19:26;;;;;;;53.77;22.07;;;3.50;99.90;;;;;;5033392;28;20187;-68
2022/03/16 07:21:51;;;;;;;56.30;22.30;;;3.50;99.90;;;;;;5033621;28;20319;-67
2022/03/16 07:24:17;;;;;;;65.97;22.43;;;3.40;99.90;;;;;;5032494;28;20528;-67
2022/03/16 07:26:43;;;;;;;66.43;23.97;;;3.50;99.90;;;;;;5033448;28;20194;-67
2022/03/16 07:29:09;;;;;;;68.83;25.57;;;3.60;99.90;;;;;;5033411;28;20194;-68
2022/03/16 07:31:35;;;;;;;51.00;22.50;;;3.70;99.90;;;;;;5033707;28;20725;-67
2022/03/16 07:34:01;;;;;;;57.87;24.53;;;3.90;99.90;;;;;;5020292;28;20191;-68
2022/03/16 07:36:27;;;;;;;68.37;26.67;;;4.00;99.90;;;;;;5033288;28;20198;-68
2022/03/16 07:38:54;;;;;;;68.97;28.40;;;3.90;99.90;;;;;;5029390;28;20258;-67
2022/03/16 07:41:19;;;;;;;92.03;29.33;;;3.90;99.90;;;;;;5024841;28;20697;-68
2022/03/16 07:43:46;;;;;;;70.37;30.27;;;4.00;99.90;;;;;;5012402;28;20198;-68
2022/03/16 07:46:11;;;;;;;64.67;27.93;;;4.00;99.90;;;;;;5029153;28;20191;-68
2022/03/16 07:48:38;;;;;;;76.00;34.63;;;4.00;99.90;;;;;;5030785;28;20193;-68
2022/03/16 07:51:04;;;;;;;80.27;34.17;;;4.00;99.90;;;;;;5027413;28;20214;-67
2022/03/16 07:53:30;;;;;;;85.60;34.57;;;4.00;99.90;;;;;;5031647;28;20175;-68
2022/03/16 07:55:57;;;;;;;67.63;30.00;;;4.00;99.90;;;;;;5019512;28;20183;-68
2022/03/16 07:58:23;;;;;;;70.90;30.63;;;4.10;99.90;;;;;;4999222;28;20203;-68
2022/03/16 08:00:49;;;;;;;64.80;29.30;;;4.20;99.90;;;;;;5028459;28;20218;-68
2022/03/16 08:03:15;;;;;;;74.20;29.03;;;4.30;99.90;;;;;;5033313;28;20182;-67
2022/03/16 08:05:41;;;;;;;79.87;31.33;;;4.20;99.90;;;;;;5018902;28;20693;-73
2022/03/16 08:08:07;;;;;;;88.87;29.23;;;4.40;99.90;;;;;;5032733;28;20178;-70
2022/03/16 08:10:32;;;;;;;89.33;29.40;;;4.60;99.90;;;;;;5019022;28;20213;-71
2022/03/16 08:12:58;;;;;;;83.37;27.40;;;4.90;99.90;;;;;;5033175;28;20183;-72
2022/03/16 08:15:24;;;;;;;82.97;30.03;;;4.90;99.90;;;;;;5019135;28;20275;-72
2022/03/16 08:17:50;;;;;;;74.33;29.70;;;5.10;99.90;;;;;;5032465;28;20199;-70
2022/03/16 08:20:16;;;;;;;70.73;28.73;;;5.20;99.90;;;;;;5018380;28;20224;-72
2022/03/16 08:22:42;;;;;;;96.80;32.30;;;5.30;99.90;;;;;;5032089;28;20256;-72
2022/03/16 08:25:10;;;;;;;135.93;39.47;;;5.40;99.90;;;;;;5018242;28;20189;-73
2022/03/16 08:27:37;;;;;;;79.13;36.07;;;5.40;99.90;;;;;;5019670;28;20188;-74
2022/03/16 08:30:07;;;;;;;94.77;38.30;;;5.40;99.90;;;;;;5019087;28;20201;-75
2022/03/16 08:32:33;;;;;;;88.40;39.70;;;5.20;99.90;;;;;;5019977;28;20240;-70
2022/03/16 08:34:59;;;;;;;134.40;49.03;;;5.10;99.90;;;;;;5032376;28;20188;-70
2022/03/16 08:37:25;;;;;;;101.23;44.33;;;5.30;99.90;;;;;;4995580;28;20272;-67
2022/03/16 08:39:52;;;;;;;104.87;47.37;;;5.20;99.90;;;;;;5011549;28;20237;-67
2022/03/16 08:42:18;;;;;;;102.17;41.43;;;5.20;99.90;;;;;;4994637;28;20476;-67
2022/03/16 08:44:45;;;;;;;105.57;43.33;;;5.20;99.90;;;;;;4994730;28;20176;-64
2022/03/16 08:47:16;;;;;;;122.50;42.97;;;5.00;99.90;;;;;;5012072;28;20280;-69
2022/03/16 08:49:45;;;;;;;99.50;41.07;;;5.10;99.90;;;;;;4994543;28;20649;-71
2022/03/16 08:52:11;;;;;;;127.93;43.03;;;5.00;99.90;;;;;;5012468;28;20588;-70
2022/03/16 08:54:38;;;;;;;106.87;41.77;;;5.20;99.90;;;;;;4992383;28;20185;-69
2022/03/16 08:57:04;;;;;;;95.23;37.03;;;5.30;99.90;;;;;;5011626;28;20192;-68
2022/03/16 08:59:30;;;;;;;95.67;39.67;;;5.40;99.90;;;;;;5011445;28;20178;-67
2022/03/16 09:01:56;;;;;;;88.13;39.20;;;5.70;99.90;;;;;;5010328;28;20317;-70
2022/03/16 09:04:21;;;;;;;90.73;39.43;;;5.80;99.90;;;;;;5010325;28;20189;-65
2022/03/16 09:06:48;;;;;;;90.93;37.30;;;5.70;99.90;;;;;;5011549;28;20218;-66
2022/03/16 09:09:14;;;;;;;90.40;42.93;;;5.70;99.90;;;;;;5011683;28;20525;-68
2022/03/16 09:11:40;;;;;;;120.30;43.13;;;5.80;99.90;;;;;;5011730;28;20196;-67
2022/03/16 09:14:06;;;;;;;106.70;42.23;;;5.90;99.90;;;;;;5010254;28;20191;-74
2022/03/16 09:16:32;;;;;;;86.60;39.47;;;6.00;99.90;;;;;;5011432;28;20198;-71
2022/03/16 09:18:58;;;;;;;91.33;41.23;;;5.90;99.90;;;;;;5011748;28;20193;-70
2022/03/16 09:21:26;;;;;;;109.30;50.97;;;5.70;99.90;;;;;;5011911;28;20217;-69
2022/03/16 09:23:55;;;;;;;109.60;50.73;;;5.60;99.90;;;;;;5011505;28;20294;-70
2022/03/16 09:26:21;;;;;;;125.63;54.83;;;5.30;99.90;;;;;;5010379;28;20195;-62
2022/03/16 09:28:48;;;;;;;109.73;50.40;;;5.00;99.90;;;;;;5011440;28;20327;-73
2022/03/16 09:31:14;;;;;;;108.17;49.67;;;4.90;99.90;;;;;;5011703;28;20177;-69
2022/03/16 09:33:40;;;;;;;184.80;61.10;;;4.80;99.90;;;;;;4993873;28;20512;-70
2022/03/16 09:36:08;;;;;;;125.07;52.33;;;4.60;99.90;;;;;;5019798;28;20194;-69
2022/03/16 09:38:35;;;;;;;90.33;42.27;;;4.40;99.90;;;;;;5029678;28;20300;-71
2022/03/16 09:41:02;;;;;;;98.17;42.57;;;4.30;99.90;;;;;;5031072;28;20592;-65
2022/03/16 09:43:31;;;;;;;100.37;42.53;;;4.30;99.90;;;;;;5013487;28;20232;-73
2022/03/16 09:46:02;;;;;;;96.57;38.87;;;4.30;99.90;;;;;;5030186;28;20254;-68
2022/03/16 09:48:29;;;;;;;82.10;36.20;;;4.30;99.90;;;;;;5029109;28;20319;-65
2022/03/16 09:50:56;;;;;;;96.10;37.07;;;4.40;99.90;;;;;;5030558;28;20179;-68
2022/03/16 09:53:26;;;;;;;90.00;38.87;;;4.40;99.90;;;;;;5028665;28;20242;-67
2022/03/16 09:55:53;;;;;;;76.63;35.90;;;4.30;99.90;;;;;;5030319;28;20680;-68
2022/03/16 09:58:22;;;;;;;80.27;37.67;;;4.30;99.90;;;;;;5030358;28;20175;-66
2022/03/16 10:00:49;;;;;;;96.20;38.17;;;4.30;99.90;;;;;;5030273;28;20206;-67
2022/03/16 10:03:16;;;;;;;91.53;39.83;;;4.30;99.90;;;;;;5013412;28;20187;-66
2022/03/16 10:05:44;;;;;;;85.07;38.80;;;4.30;99.90;;;;;;5028398;28;20194;-66
2022/03/16 10:08:11;;;;;;;92.03;37.90;;;4.30;99.90;;;;;;4977276;28;20245;-64
2022/03/16 10:13:23;;;;;;;85.33;36.50;;;4.40;99.90;;;;;;5010520;28;20206;-69
2022/03/16 10:15:51;;;;;;;100.23;40.83;;;4.30;99.90;;;;;;4993941;28;20217;-81
2022/03/16 10:18:22;;;;;;;102.07;38.63;;;4.50;99.90;;;;;;5011100;28;20321;-73
2022/03/16 10:20:50;;;;;;;110.80;41.13;;;4.60;99.90;;;;;;5011212;28;20219;-73
2022/03/16 10:23:21;;;;;;;88.63;36.17;;;4.60;99.90;;;;;;5000175;28;20195;-72
2022/03/16 10:25:51;;;;;;;94.23;37.30;;;4.60;99.90;;;;;;5026125;28;20187;-72
2022/03/16 10:28:25;;;;;;;95.67;40.30;;;4.70;99.90;;;;;;5025747;28;20202;-73
2022/03/16 10:30:58;;;;;;;89.97;37.13;;;4.60;99.90;;;;;;5025219;28;20334;-72
2022/03/16 10:33:51;;;;;;;84.70;37.33;;;4.50;99.90;;;;;;5010294;28;20702;-72
2022/03/16 10:36:26;;;;;;;82.40;36.67;;;4.50;99.90;;;;;;5029824;28;20281;-72
2022/03/16 10:39:03;;;;;;;92.00;39.43;;;4.50;99.90;;;;;;5026017;28;20206;-72
2022/03/16 10:47:26;;;;;;;77.53;36.50;;;4.60;99.90;;;;;;5025761;28;20249;-71
2022/03/16 10:50:06;;;;;;;158.47;42.63;;;4.50;99.90;;;;;;5027423;28;20182;-72
2022/03/16 10:52:34;;;;;;;99.50;42.23;;;4.50;99.90;;;;;;5014915;28;20183;-71
2022/03/16 10:55:04;;;;;;;99.30;42.67;;;4.50;99.90;;;;;;5028482;28;20183;-73
2022/03/16 10:57:31;;;;;;;100.33;44.00;;;4.50;99.90;;;;;;5024042;28;20210;-75
2022/03/16 10:59:58;;;;;;;115.63;45.70;;;4.50;99.90;;;;;;5013469;28;20269;-72
2022/03/16 11:02:28;;;;;;;108.63;43.50;;;4.50;99.90;;;;;;5012032;28;20262;-72
2022/03/16 11:04:54;;;;;;;109.33;43.87;;;4.60;99.90;;;;;;5013826;28;20214;-76
2022/03/16 11:07:21;;;;;;;106.27;44.80;;;4.60;99.90;;;;;;5012654;28;20269;-73
2022/03/16 11:09:48;;;;;;;105.40;45.27;;;4.60;99.90;;;;;;5012723;28;20195;-70
2022/03/16 11:15:04;;;;;;;115.90;48.03;;;4.60;99.90;;;;;;5013468;28;20174;-77
2022/03/16 11:17:31;;;;;;;116.90;48.13;;;4.50;99.90;;;;;;5012166;28;20171;-73
2022/03/16 11:20:00;;;;;;;105.70;44.83;;;4.30;99.90;;;;;;5013233;28;20596;-74
2022/03/16 11:24:15;;;;;;;109.20;48.47;;;4.00;99.90;;;;;;5012314;28;20184;-71
2022/03/16 11:25:25;;;;;;;122.57;49.33;;;4.00;99.90;;;;;;5013186;28;20190;-65
2022/03/16 11:27:53;;;;;;;111.67;45.67;;;4.00;99.90;;;;;;5011616;28;20195;-69
2022/03/16 11:30:37;;;;;;;115.63;46.90;;;4.00;99.90;;;;;;5011935;28;20275;-73
2022/03/16 11:33:06;;;;;;;106.17;43.20;;;4.00;99.90;;;;;;5013411;28;20618;-76
2022/03/16 11:35:34;;;;;;;99.90;44.73;;;4.00;99.90;;;;;;5017293;28;20352;-75
2022/03/16 11:38:09;;;;;;;97.70;40.07;;;4.00;99.90;;;;;;5032686;28;20217;-76
2022/03/16 11:40:37;;;;;;;101.40;44.50;;;4.00;99.90;;;;;;5032909;28;20330;-69
2022/03/16 11:43:04;;;;;;;93.27;39.00;;;3.90;99.90;;;;;;5032950;28;20611;-70
2022/03/16 11:45:43;;;;;;;85.97;34.17;;;3.90;99.90;;;;;;5032770;28;20182;-70
2022/03/16 11:48:36;;;;;;;91.87;38.37;;;3.80;99.90;;;;;;5033446;28;20253;-69
2022/03/16 11:51:13;;;;;;;101.47;41.37;;;3.70;99.90;;;;;;5033174;28;20171;-74
2022/03/16 11:53:51;;;;;;;91.20;40.13;;;3.80;99.90;;;;;;5034418;28;20190;-71
2022/03/16 11:56:29;;;;;;;104.13;39.23;;;3.90;99.90;;;;;;5033142;28;20235;-70
2022/03/16 11:59:02;;;;;;;95.63;39.80;;;3.90;99.90;;;;;;5031474;28;20510;-71
2022/03/16 12:01:39;;;;;;;95.53;35.50;;;3.90;99.90;;;;;;5032561;28;20245;-73
2022/03/16 12:04:12;;;;;;;91.63;38.63;;;3.90;99.90;;;;;;5033202;28;20182;-76
2022/03/16 12:07:02;;;;;;;98.07;39.47;;;3.90;99.90;;;;;;5014792;28;20182;-73
2022/03/16 12:09:34;;;;;;;102.17;38.43;;;4.00;99.90;;;;;;5032520;28;20166;-75
2022/03/16 12:15:28;;;;;;;105.67;38.87;;;4.00;99.90;;;;;;5032241;28;20201;-74
2022/03/16 12:17:54;;;;;;;90.43;38.07;;;4.00;99.90;;;;;;5023941;28;20512;-74
2022/03/16 12:20:23;;;;;;;91.27;38.53;;;4.00;99.90;;;;;;5014440;28;20210;-72
2022/03/16 12:22:53;;;;;;;98.93;40.47;;;4.10;99.90;;;;;;5032072;28;20595;-68
2022/03/16 12:25:30;;;;;;;117.07;42.63;;;4.20;99.90;;;;;;5032001;28;20171;-68
2022/03/16 12:31:06;;;;;;;100.03;40.33;;;4.30;99.90;;;;;;5032131;28;20173;-69
2022/03/16 12:33:39;;;;;;;92.90;40.63;;;4.30;99.90;;;;;;5031027;28;20179;-69
2022/03/16 12:36:13;;;;;;;91.13;39.07;;;4.30;99.90;;;;;;5006584;28;20241;-71
2022/03/16 12:38:50;;;;;;;91.93;39.37;;;4.20;99.90;;;;;;5012372;28;20179;-66
2022/03/16 12:44:06;;;;;;;85.20;36.40;;;4.10;99.90;;;;;;5011894;28;20218;-69
2022/03/16 12:46:47;;;;;;;93.50;37.63;;;4.00;99.90;;;;;;4994649;28;20239;-70
2022/03/16 12:49:16;;;;;;;91.20;37.30;;;4.00;99.90;;;;;;4994634;28;20198;-67
2022/03/16 12:51:56;;;;;;;90.00;37.03;;;4.10;99.90;;;;;;4993964;28;20278;-71
2022/03/16 12:54:29;;;;;;;94.53;38.87;;;4.10;99.90;;;;;;5012457;28;20612;-67
2022/03/16 12:57:01;;;;;;;88.67;37.63;;;4.20;99.90;;;;;;5012223;28;20226;-66
2022/03/16 12:59:52;;;;;;;90.10;36.83;;;4.20;99.90;;;;;;5012541;28;20221;-65
2022/03/16 13:02:27;;;;;;;84.90;35.43;;;4.10;99.90;;;;;;5028066;28;20223;-66